createdAt,value
2018-09-23T00:01:49.292Z,4.60
2018-09-23T00:04:18.160Z,4.53
2018-09-23T00:06:48.232Z,8.73
2018-09-23T00:09:19.629Z,4.07
2018-09-23T00:11:50.365Z,4.73
2018-09-23T00:14:21.518Z,2.87
2018-09-23T00:16:50.698Z,4.20
2018-09-23T00:19:19.386Z,6.43
2018-09-23T00:21:48.474Z,4.57
2018-09-23T00:24:18.509Z,4.63
2018-09-23T00:26:48.142Z,6.33
2018-09-23T00:29:22.481Z,4.97
2018-09-23T00:31:52.685Z,3.27
2018-09-23T00:34:23.275Z,4.13
2018-09-23T00:36:52.776Z,5.93
2018-09-23T00:39:22.420Z,4.60
2018-09-23T00:41:54.340Z,3.40
2018-09-23T00:44:23.746Z,5.17
2018-09-23T00:46:52.624Z,14.60
2018-09-23T00:49:22.205Z,25.33
2018-09-23T00:51:51.163Z,6.57
2018-09-23T00:54:19.298Z,3.97
2018-09-23T00:56:48.985Z,6.50
2018-09-23T00:59:17.806Z,6.73
2018-09-23T01:01:45.810Z,3.73
2018-09-23T01:04:16.273Z,4.90
2018-09-23T01:06:44.438Z,5.67
2018-09-23T01:09:13.413Z,3.57
2018-09-23T01:11:43.559Z,6.20
2018-09-23T01:14:12.314Z,4.27
2018-09-23T01:16:41.852Z,5.30
2018-09-23T01:19:11.336Z,4.43
2018-09-23T01:21:40.370Z,6.80
2018-09-23T01:24:09.975Z,6.13
2018-09-23T01:26:38.761Z,3.43
2018-09-23T01:29:06.818Z,7.77
2018-09-23T01:31:38.578Z,6.07
2018-09-23T01:34:06.651Z,5.03
2018-09-23T01:36:34.696Z,6.63
2018-09-23T01:39:05.020Z,5.07
2018-09-23T01:41:38.901Z,4.80
2018-09-23T01:44:09.917Z,4.70
2018-09-23T01:46:37.876Z,5.87
2018-09-23T01:49:13.689Z,6.57
2018-09-23T01:52:04.519Z,4.60
2018-09-23T01:54:44.941Z,4.23
2018-09-23T01:57:26.766Z,7.73
2018-09-23T01:59:56.358Z,6.40
2018-09-23T02:02:24.462Z,4.53
2018-09-23T02:04:52.574Z,7.70
2018-09-23T02:07:20.606Z,8.17
2018-09-23T02:09:50.004Z,3.50
2018-09-23T02:12:18.693Z,5.10
2018-09-23T02:14:48.358Z,5.83
2018-09-23T02:17:18.379Z,6.97
2018-09-23T02:19:47.645Z,5.30
2018-09-23T02:22:16.698Z,4.70
2018-09-23T02:24:47.760Z,3.33
2018-09-23T02:27:16.581Z,7.40
2018-09-23T02:29:44.639Z,5.43
2018-09-23T02:32:13.724Z,3.63
2018-09-23T02:34:43.019Z,7.07
2018-09-23T02:37:11.854Z,6.10
2018-09-23T02:39:41.482Z,5.50
2018-09-23T02:42:12.315Z,5.13
2018-09-23T02:44:41.062Z,5.77
2018-09-23T02:47:09.969Z,6.73
2018-09-23T02:49:38.667Z,4.33
2018-09-23T02:52:06.930Z,4.90
2018-09-23T02:54:36.313Z,5.33
2018-09-23T02:57:06.058Z,4.63
2018-09-23T02:59:35.274Z,7.67
2018-09-23T03:02:03.379Z,7.10
2018-09-23T03:04:35.714Z,4.83
2018-09-23T03:07:04.746Z,4.53
2018-09-23T03:09:32.978Z,4.70
2018-09-23T03:12:05.631Z,5.47
2018-09-23T03:14:35.556Z,5.80
2018-09-23T03:17:04.764Z,5.33
2018-09-23T03:19:33.367Z,5.03
2018-09-23T03:22:02.600Z,4.57
2018-09-23T03:24:32.993Z,3.97
2018-09-23T03:27:01.066Z,3.53
2018-09-23T03:29:31.029Z,7.47
2018-09-23T03:31:59.732Z,3.23
2018-09-23T03:34:28.574Z,5.10
2018-09-23T03:36:57.168Z,5.73
2018-09-23T03:39:25.563Z,3.70
2018-09-23T03:41:53.820Z,3.13
2018-09-23T03:44:24.335Z,3.40
2018-09-23T03:46:54.272Z,3.93
2018-09-23T03:49:23.462Z,2.37
2018-09-23T03:51:54.375Z,5.50
2018-09-23T03:54:24.887Z,5.40
2018-09-23T03:56:55.010Z,3.83
2018-09-23T03:59:23.742Z,6.10
2018-09-23T04:01:52.733Z,5.60
2018-09-23T04:04:26.036Z,5.60
2018-09-23T04:06:55.771Z,4.93
2018-09-23T04:09:25.333Z,3.50
2018-09-23T04:11:55.705Z,3.03
2018-09-23T04:14:26.215Z,4.50
2018-09-23T04:16:57.177Z,3.47
2018-09-23T04:19:26.533Z,6.57
2018-09-23T04:21:55.400Z,3.43
2018-09-23T04:24:24.863Z,3.30
2018-09-23T04:26:54.291Z,4.70
2018-09-23T04:29:23.613Z,3.13
2018-09-23T04:31:52.336Z,2.17
2018-09-23T04:34:21.521Z,3.57
2018-09-23T04:36:51.011Z,4.37
2018-09-23T04:39:20.039Z,2.13
2018-09-23T04:41:52.789Z,1.90
2018-09-23T04:44:22.502Z,4.40
2018-09-23T04:46:51.831Z,1.97
2018-09-23T04:49:24.335Z,4.43
2018-09-23T04:51:54.097Z,3.47
2018-09-23T04:54:23.909Z,2.60
2018-09-23T04:56:54.003Z,2.37
2018-09-23T04:59:22.665Z,2.07
2018-09-23T05:01:51.600Z,2.80
2018-09-23T05:04:21.198Z,3.10
2018-09-23T05:06:50.199Z,2.73
2018-09-23T05:09:20.258Z,3.43
2018-09-23T05:11:49.371Z,2.07
2018-09-23T05:14:34.879Z,1.93
2018-09-23T05:17:04.024Z,4.10
2018-09-23T05:19:34.021Z,2.33
2018-09-23T05:22:03.417Z,3.73
2018-09-23T05:24:32.139Z,1.70
2018-09-23T05:27:00.141Z,3.03
2018-09-23T05:29:28.817Z,3.80
2018-09-23T05:31:57.466Z,3.00
2018-09-23T05:34:35.202Z,2.33
2018-09-23T05:37:05.210Z,2.20
2018-09-23T05:39:33.288Z,1.87
2018-09-23T05:42:10.857Z,2.40
2018-09-23T05:44:51.498Z,3.27
2018-09-23T05:47:29.567Z,2.20
2018-09-23T05:49:59.775Z,1.60
2018-09-23T05:52:33.842Z,2.60
2018-09-23T05:55:15.365Z,2.23
2018-09-23T05:57:45.731Z,2.10
2018-09-23T06:00:34.773Z,2.53
2018-09-23T06:03:04.100Z,2.30
2018-09-23T06:05:32.491Z,1.67
2018-09-23T06:08:00.924Z,1.60
2018-09-23T06:10:28.883Z,3.47
2018-09-23T06:12:58.104Z,1.83
2018-09-23T06:15:26.774Z,1.57
2018-09-23T06:17:56.713Z,1.57
2018-09-23T06:20:25.425Z,2.17
2018-09-23T06:22:57.206Z,2.23
2018-09-23T06:25:25.473Z,2.33
2018-09-23T06:27:54.753Z,1.47
2018-09-23T06:30:23.137Z,2.43
2018-09-23T06:32:53.123Z,1.43
2018-09-23T06:35:21.986Z,2.03
2018-09-23T06:37:50.117Z,1.47
2018-09-23T06:40:18.557Z,1.20
2018-09-23T06:42:47.520Z,1.87
2018-09-23T06:45:16.410Z,1.40
2018-09-23T06:47:47.879Z,1.50
2018-09-23T06:50:16.216Z,1.20
2018-09-23T06:52:50.007Z,1.30
2018-09-23T06:55:18.923Z,1.80
2018-09-23T06:57:49.221Z,1.63
2018-09-23T07:00:17.859Z,1.20
2018-09-23T07:02:48.674Z,2.00
2018-09-23T07:05:27.666Z,1.03
2018-09-23T07:07:58.109Z,1.77
2018-09-23T07:10:28.091Z,1.23
2018-09-23T07:13:03.757Z,1.57
2018-09-23T07:15:36.151Z,1.27
2018-09-23T07:18:05.466Z,0.73
2018-09-23T07:20:33.825Z,0.97
2018-09-23T07:23:02.671Z,1.00
2018-09-23T07:25:33.934Z,1.67
2018-09-23T07:28:03.024Z,1.43
2018-09-23T07:30:33.369Z,1.60
2018-09-23T07:33:03.318Z,1.37
2018-09-23T07:35:36.816Z,1.30
2018-09-23T07:38:09.621Z,1.07
2018-09-23T07:43:30.505Z,1.23
2018-09-23T07:46:00.670Z,1.60
2018-09-23T07:48:28.890Z,1.40
2018-09-23T07:51:08.634Z,3.57
2018-09-23T07:53:54.178Z,1.00
2018-09-23T07:56:25.862Z,1.53
2018-09-23T07:58:59.497Z,1.07
2018-09-23T08:01:29.947Z,0.70
2018-09-23T08:03:59.244Z,1.10
2018-09-23T08:06:30.859Z,2.87
2018-09-23T08:09:13.152Z,1.00
2018-09-23T08:11:43.054Z,2.10
2018-09-23T08:14:12.784Z,2.23
2018-09-23T08:16:43.693Z,2.07
2018-09-23T08:19:13.276Z,1.10
2018-09-23T08:21:42.360Z,0.90
2018-09-23T08:24:12.333Z,0.70
2018-09-23T08:26:51.488Z,3.27
2018-09-23T08:29:25.642Z,0.67
2018-09-23T08:31:59.897Z,1.23
2018-09-23T08:34:31.614Z,0.80
2018-09-23T08:37:03.898Z,1.17
2018-09-23T08:39:32.896Z,1.67
2018-09-23T08:42:11.409Z,0.90
2018-09-23T08:44:40.701Z,0.80
2018-09-23T08:47:15.784Z,0.67
2018-09-23T08:49:46.677Z,1.30
2018-09-23T08:52:17.265Z,0.73
2018-09-23T08:54:48.462Z,0.77
2018-09-23T08:57:19.884Z,0.70
2018-09-23T08:59:49.901Z,0.87
2018-09-23T09:02:21.744Z,0.97
2018-09-23T09:04:51.659Z,1.10
2018-09-23T09:07:20.321Z,0.67
2018-09-23T09:11:27.230Z,1.30
2018-09-23T09:14:18.739Z,0.90
2018-09-23T09:16:50.895Z,2.63
2018-09-23T09:19:29.368Z,2.53
2018-09-23T09:24:42.128Z,1.53
2018-09-23T09:27:52.746Z,1.17
2018-09-23T09:31:06.750Z,1.60
2018-09-23T09:33:42.325Z,2.90
2018-09-23T09:36:35.801Z,1.10
2018-09-23T09:39:52.202Z,1.90
2018-09-23T09:42:33.542Z,1.00
2018-09-23T09:45:15.750Z,1.97
2018-09-23T09:48:24.468Z,2.67
2018-09-23T09:50:54.467Z,1.83
2018-09-23T09:53:36.693Z,1.10
2018-09-23T09:56:05.739Z,1.37
2018-09-23T09:58:37.851Z,1.40
2018-09-23T10:01:08.826Z,1.53
2018-09-23T10:03:39.463Z,1.30
2018-09-23T10:06:08.657Z,1.83
2018-09-23T10:08:38.362Z,1.87
2018-09-23T10:11:07.574Z,1.53
2018-09-23T10:13:36.983Z,1.47
2018-09-23T10:16:06.753Z,1.07
2018-09-23T10:18:35.200Z,2.03
2018-09-23T10:21:06.640Z,2.70
2018-09-23T10:23:35.844Z,1.60
2018-09-23T10:26:09.173Z,3.30
2018-09-23T10:28:40.829Z,2.30
2018-09-23T10:31:17.465Z,1.70
2018-09-23T10:33:48.417Z,1.77
2018-09-23T10:36:30.460Z,2.53
2018-09-23T10:39:14.282Z,2.20
2018-09-23T10:41:45.223Z,1.80
2018-09-23T10:44:22.468Z,1.77
2018-09-23T10:46:50.652Z,1.10
2018-09-23T10:49:21.558Z,1.97
2018-09-23T10:51:51.517Z,1.40
2018-09-23T10:54:27.256Z,2.30
2018-09-23T10:57:01.286Z,1.10
2018-09-23T10:59:35.618Z,1.23
2018-09-23T11:02:06.617Z,1.70
2018-09-23T11:04:35.363Z,1.30
2018-09-23T11:07:20.309Z,1.17
2018-09-23T11:09:49.394Z,0.80
2018-09-23T11:12:17.763Z,1.30
2018-09-23T11:14:45.946Z,1.73
2018-09-23T11:23:19.737Z,3.53
2018-09-23T11:25:49.426Z,1.47
2018-09-23T11:28:35.811Z,3.30
2018-09-23T11:31:15.969Z,5.50
2018-09-23T11:33:46.638Z,2.93
2018-09-23T11:36:16.819Z,1.57
2018-09-23T11:39:20.754Z,2.60
2018-09-23T11:41:54.456Z,1.53
2018-09-23T11:44:25.893Z,2.23
2018-09-23T11:46:55.508Z,3.53
2018-09-23T11:49:26.739Z,1.77
2018-09-23T11:51:59.606Z,1.60
2018-09-23T11:54:27.916Z,1.47
2018-09-23T11:56:56.196Z,1.60
2018-09-23T11:59:25.589Z,2.10
2018-09-23T12:02:00.858Z,3.60
2018-09-23T12:04:35.513Z,2.07
2018-09-23T12:07:04.907Z,1.73
2018-09-23T12:09:35.545Z,1.43
2018-09-23T12:12:25.654Z,1.80
2018-09-23T12:14:55.816Z,1.40
2018-09-23T12:17:25.801Z,1.27
2018-09-23T12:19:55.478Z,1.23
2018-09-23T12:22:27.847Z,1.87
2018-09-23T12:25:05.213Z,1.63
2018-09-23T12:27:45.494Z,2.13
2018-09-23T12:30:15.415Z,3.67
2018-09-23T12:32:52.059Z,2.90
2018-09-23T12:35:21.413Z,1.80
2018-09-23T12:37:51.030Z,2.27
2018-09-23T12:40:19.099Z,2.30
2018-09-23T12:43:00.277Z,2.30
2018-09-23T12:45:42.393Z,2.40
2018-09-23T12:50:48.421Z,2.90
2018-09-23T12:53:19.680Z,3.30
2018-09-23T12:55:48.547Z,3.30
2018-09-23T12:58:26.329Z,3.90
2018-09-23T13:01:19.524Z,3.87
2018-09-23T13:03:50.781Z,3.90
2018-09-23T13:06:24.623Z,3.90
2018-09-23T13:09:08.936Z,4.57
2018-09-23T13:12:11.315Z,2.80
2018-09-23T13:15:06.807Z,2.07
2018-09-23T13:17:36.490Z,2.90
2018-09-23T13:20:06.442Z,2.53
2018-09-23T13:22:35.623Z,2.43
2018-09-23T13:25:10.130Z,1.63
2018-09-23T13:27:40.458Z,1.90
2018-09-23T13:30:10.478Z,1.50
2018-09-23T13:36:00.758Z,1.87
2018-09-23T13:38:30.455Z,2.03
2018-09-23T13:41:05.683Z,1.00
2018-09-23T13:43:35.072Z,2.93
2018-09-23T13:46:05.969Z,1.50
2018-09-23T13:48:38.904Z,1.33
2018-09-23T13:51:10.546Z,2.97
2018-09-23T13:53:43.375Z,1.77
2018-09-23T13:56:14.780Z,2.10
2018-09-23T13:58:47.705Z,2.40
2018-09-23T14:01:17.586Z,4.53
2018-09-23T14:03:50.953Z,2.43
2018-09-23T14:06:21.745Z,1.97
2018-09-23T14:09:01.214Z,3.37
2018-09-23T14:11:35.869Z,3.60
2018-09-23T14:14:05.970Z,1.90
2018-09-23T14:16:34.625Z,2.23
2018-09-23T14:19:16.377Z,2.17
2018-09-23T14:22:06.196Z,2.50
2018-09-23T14:24:38.791Z,7.73
2018-09-23T14:27:08.349Z,4.20
2018-09-23T14:29:42.770Z,2.17
2018-09-23T14:32:18.663Z,1.67
2018-09-23T14:34:58.931Z,2.97
2018-09-23T14:37:29.926Z,6.33
2018-09-23T14:40:07.242Z,3.03
2018-09-23T14:42:40.740Z,1.00
2018-09-23T14:45:17.731Z,0.83
2018-09-23T14:47:50.826Z,1.07
2018-09-23T14:50:20.387Z,1.27
2018-09-23T14:52:55.583Z,1.67
2018-09-23T14:55:44.696Z,1.60
2018-09-23T14:58:20.840Z,0.63
2018-09-23T15:00:53.545Z,0.90
2018-09-23T15:03:37.430Z,3.13
2018-09-23T15:06:18.480Z,2.23
2018-09-23T15:08:52.630Z,1.10
2018-09-23T15:11:22.748Z,2.40
2018-09-23T15:13:57.644Z,0.80
2018-09-23T15:16:29.613Z,2.07
2018-09-23T15:19:48.258Z,5.40
2018-09-23T15:22:34.445Z,2.30
2018-09-23T15:25:03.669Z,2.03
2018-09-23T15:27:37.062Z,1.50
2018-09-23T15:30:06.624Z,1.27
2018-09-23T15:32:36.678Z,1.30
2018-09-23T15:35:07.960Z,1.63
2018-09-23T15:37:37.288Z,1.97
2018-09-23T15:40:06.102Z,1.27
2018-09-23T15:42:35.552Z,0.80
2018-09-23T15:45:06.177Z,0.60
2018-09-23T15:47:34.733Z,0.77
2018-09-23T15:50:05.462Z,1.23
2018-09-23T15:52:35.346Z,0.90
2018-09-23T15:55:04.327Z,0.70
2018-09-23T15:57:34.226Z,1.13
2018-09-23T16:00:02.816Z,0.60
2018-09-23T16:02:31.607Z,0.80
2018-09-23T16:05:01.739Z,1.40
2018-09-23T16:07:32.088Z,0.60
2018-09-23T16:10:01.411Z,1.10
2018-09-23T16:12:31.013Z,0.63
2018-09-23T16:15:01.633Z,0.60
2018-09-23T16:17:32.273Z,0.67
2018-09-23T16:20:08.583Z,0.70
2018-09-23T16:22:39.913Z,0.90
2018-09-23T16:25:08.576Z,0.83
2018-09-23T16:27:37.244Z,0.83
2018-09-23T16:30:09.433Z,0.50
2018-09-23T16:32:42.855Z,0.60
2018-09-23T16:35:11.985Z,1.67
2018-09-23T16:37:41.549Z,0.90
2018-09-23T16:40:16.631Z,0.60
2018-09-23T16:42:50.351Z,1.07
2018-09-23T16:45:28.379Z,0.80
2018-09-23T16:48:00.727Z,0.60
2018-09-23T16:50:31.024Z,1.00
2018-09-23T16:53:01.669Z,0.67
2018-09-23T16:55:30.342Z,0.70
2018-09-23T16:58:10.044Z,0.70
2018-09-23T17:00:39.948Z,0.60
2018-09-23T17:03:08.486Z,0.60
2018-09-23T17:05:42.960Z,1.60
2018-09-23T17:08:11.444Z,0.70
2018-09-23T17:10:40.608Z,0.50
2018-09-23T17:13:14.212Z,0.67
2018-09-23T17:15:43.577Z,0.60
2018-09-23T17:18:12.247Z,0.67
2018-09-23T17:20:41.307Z,0.60
2018-09-23T17:23:09.320Z,0.80
2018-09-23T17:25:37.842Z,0.80
2018-09-23T17:28:06.665Z,0.70
2018-09-23T17:30:38.199Z,0.67
2018-09-23T17:33:08.610Z,0.67
2018-09-23T17:35:36.856Z,0.70
2018-09-23T17:38:08.266Z,0.60
2018-09-23T17:40:39.013Z,0.50
2018-09-23T17:43:07.140Z,0.60
2018-09-23T17:45:36.346Z,1.07
2018-09-23T17:48:05.266Z,0.60
2018-09-23T17:50:36.690Z,0.90
2018-09-23T17:53:05.074Z,0.80
2018-09-23T17:55:37.842Z,0.70
2018-09-23T17:58:08.396Z,1.17
2018-09-23T18:00:41.182Z,1.50
2018-09-23T18:03:11.173Z,0.80
2018-09-23T18:05:40.684Z,1.63
2018-09-23T18:08:10.103Z,0.70
2018-09-23T18:10:41.568Z,1.53
2018-09-23T18:13:10.608Z,0.80
2018-09-23T18:15:39.713Z,0.90
2018-09-23T18:18:09.872Z,0.80
2018-09-23T18:20:40.316Z,1.47
2018-09-23T18:23:10.273Z,1.20
2018-09-23T18:25:39.513Z,0.90
2018-09-23T18:28:08.055Z,0.93
2018-09-23T18:30:37.033Z,1.10
2018-09-23T18:33:05.711Z,1.37
2018-09-23T18:35:34.717Z,0.87
2018-09-23T18:38:05.265Z,1.10
2018-09-23T18:40:34.261Z,1.07
2018-09-23T18:43:02.593Z,1.10
2018-09-23T18:45:31.447Z,1.17
2018-09-23T18:48:02.102Z,1.00
2018-09-23T18:50:30.383Z,0.83
2018-09-23T18:53:04.258Z,1.23
2018-09-23T18:55:41.245Z,1.00
2018-09-23T18:58:10.806Z,1.20
2018-09-23T19:00:40.309Z,1.30
2018-09-23T19:03:11.119Z,2.83
2018-09-23T19:05:39.752Z,2.20
2018-09-23T19:08:15.264Z,1.70
2018-09-23T19:10:44.764Z,3.40
2018-09-23T19:13:18.658Z,3.33
2018-09-23T19:15:57.289Z,2.40
2018-09-23T19:18:27.287Z,3.33
2018-09-23T19:20:59.408Z,2.17
2018-09-23T19:23:34.036Z,1.23
2018-09-23T19:26:04.637Z,1.73
2018-09-23T19:28:34.900Z,2.30
2018-09-23T19:31:05.467Z,3.83
2018-09-23T19:33:35.037Z,2.20
2018-09-23T19:36:04.601Z,1.00
2018-09-23T19:38:33.696Z,1.20
2018-09-23T19:41:18.956Z,1.77
2018-09-23T19:43:50.480Z,1.20
2018-09-23T19:46:24.138Z,1.67
2018-09-23T19:48:55.811Z,1.30
2018-09-23T19:51:24.336Z,1.53
2018-09-23T19:53:53.994Z,1.67
2018-09-23T19:56:23.024Z,1.43
2018-09-23T19:58:51.353Z,1.93
2018-09-23T20:01:20.658Z,1.50
2018-09-23T20:03:48.809Z,2.43
2018-09-23T20:06:22.488Z,1.37
2018-09-23T20:08:52.353Z,1.13
2018-09-23T20:11:23.186Z,1.70
2018-09-23T20:13:51.573Z,1.20
2018-09-23T20:16:25.205Z,2.30
2018-09-23T20:18:53.981Z,1.30
2018-09-23T20:21:23.315Z,3.87
2018-09-23T20:23:51.708Z,1.97
2018-09-23T20:26:21.073Z,1.57
2018-09-23T20:28:52.650Z,1.23
2018-09-23T20:31:21.965Z,1.20
2018-09-23T20:33:50.567Z,2.37
2018-09-23T20:36:19.005Z,2.20
2018-09-23T20:38:48.363Z,1.93
2018-09-23T20:41:17.768Z,1.43
2018-09-23T20:43:47.112Z,1.40
2018-09-23T20:46:16.706Z,1.80
2018-09-23T20:48:46.585Z,1.30
2018-09-23T20:51:17.698Z,3.00
2018-09-23T20:53:46.048Z,1.67
2018-09-23T20:56:16.580Z,4.03
2018-09-23T20:58:46.181Z,1.93
2018-09-23T21:01:17.656Z,1.40
2018-09-23T21:03:47.294Z,1.67
2018-09-23T21:06:15.745Z,2.53
2018-09-23T21:08:47.369Z,1.10
2018-09-23T21:11:20.258Z,1.63
2018-09-23T21:13:51.455Z,3.43
2018-09-23T21:16:21.192Z,1.30
2018-09-23T21:18:50.521Z,2.00
2018-09-23T21:21:18.772Z,1.73
2018-09-23T21:23:47.696Z,2.07
2018-09-23T21:26:18.825Z,2.40
2018-09-23T21:28:47.566Z,1.37
2018-09-23T21:31:16.867Z,3.13
2018-09-23T21:33:45.306Z,1.93
2018-09-23T21:36:13.412Z,1.63
2018-09-23T21:38:43.028Z,2.70
2018-09-23T21:41:12.302Z,2.33
2018-09-23T21:43:42.156Z,3.80
2018-09-23T21:46:11.996Z,1.20
2018-09-23T21:48:40.821Z,2.37
2018-09-23T21:51:09.361Z,3.80
2018-09-23T21:53:37.511Z,2.63
2018-09-23T21:56:06.756Z,2.30
2018-09-23T21:58:35.059Z,1.80
2018-09-23T22:01:13.029Z,2.93
2018-09-23T22:03:42.565Z,2.50
2018-09-23T22:06:11.473Z,2.37
2018-09-23T22:08:39.744Z,2.20
2018-09-23T22:11:10.015Z,3.83
2018-09-23T22:13:38.657Z,2.20
2018-09-23T22:16:08.629Z,3.83
2018-09-23T22:18:39.224Z,2.63
2018-09-23T22:21:07.678Z,3.67
2018-09-23T22:23:37.501Z,5.10
2018-09-23T22:26:06.488Z,3.73
2018-09-23T22:28:35.857Z,2.93
2018-09-23T22:31:04.677Z,2.77
2018-09-23T22:33:35.554Z,2.20
2018-09-23T22:36:05.049Z,2.57
2018-09-23T22:38:33.383Z,3.13
2018-09-23T22:41:02.051Z,2.43
2018-09-23T22:43:30.937Z,2.70
2018-09-23T22:46:01.639Z,2.63
2018-09-23T22:48:29.859Z,2.67
2018-09-23T22:50:58.238Z,3.43
2018-09-23T22:53:27.264Z,2.53
2018-09-23T22:55:56.708Z,3.00
2018-09-23T22:58:25.362Z,2.50
2018-09-23T23:00:54.158Z,3.03
2018-09-23T23:03:23.120Z,2.50
2018-09-23T23:05:51.963Z,2.90
2018-09-23T23:08:20.127Z,3.97
2018-09-23T23:10:48.594Z,2.70
2018-09-23T23:13:16.979Z,2.90
2018-09-23T23:15:45.211Z,1.90
2018-09-23T23:18:14.387Z,2.77
2018-09-23T23:20:43.524Z,2.27
2018-09-23T23:23:11.887Z,2.87
2018-09-23T23:25:41.135Z,2.50
2018-09-23T23:28:10.392Z,1.47
2018-09-23T23:30:38.698Z,2.43
2018-09-23T23:33:08.803Z,2.10
2018-09-23T23:35:38.102Z,5.07
2018-09-23T23:38:07.776Z,4.03
2018-09-23T23:40:37.804Z,2.17
2018-09-23T23:43:07.228Z,1.90
2018-09-23T23:45:35.356Z,4.27
2018-09-23T23:48:03.813Z,2.50
2018-09-23T23:50:32.343Z,4.07
2018-09-23T23:53:03.609Z,3.33
2018-09-23T23:55:31.672Z,2.33
2018-09-23T23:58:00.065Z,3.70
